Chie Maru No.10 — JD2376 — position and weather

sailwx.info

Track history (hours):
 
Tides and Currents Weather Stations Pressure Air Temp Water Temp Dewpoint Dewpoint Depression Visibility Wind Speed Wind Dir Waves Ship Positions

Chie Maru No.10

Last reported at 2015-May-27 09:33 UTC. Time now 2015-May-27 15:51 UTC.
Position N 35°55' E 140°41'.

Length 72 m; draft 3.8 m.

Type: Ship. MMSI: 431000147.

Date/timePositionNaut miles runAvg speedWind from/ knotsBaromVisibWave heightAir tempDewpointWater temp
2015-May-27 09:33N 35°55' E 140°41'0 0.0
2015-May-27 07:09N 35°55' E 140°41'3 0.6
2015-May-27 03:09N 35°57' E 140°42'0 0.0
2015-May-26 23:28N 35°57' E 140°42'8 8.7
2015-May-26 22:30N 35°51' E 140°49'1212.2
2015-May-26 21:33N 35°41' E 140°55'1312.9
2015-May-26 20:33N 35°30' E 140°46'1313.3
2015-May-26 19:33N 35°19' E 140°36'1414.0
2015-May-26 18:32N 35°08' E 140°25'1212.5
2015-May-26 17:33N 35°01' E 140°13'1312.2
2015-May-26 16:28N 34°53' E 140°00'1111.6
2015-May-26 15:33N 34°52' E 139°47'1111.1
2015-May-26 14:32N 35°04' E 139°44'1212.5
2015-May-26 13:33N 35°16' E 139°46'1110.5
2015-May-26 12:33N 35°26' E 139°46'1212.0
2015-May-26 11:33N 35°35' E 139°56'6 5.9
2015-May-26 10:33N 35°41' E 139°56'0 0.0
2015-May-26 09:33N 35°41' E 139°56'0 0.0
2015-May-26 08:33N 35°41' E 139°56'0 0.0
2015-May-26 07:33N 35°41' E 139°56'0 0.0
2015-May-26 06:33N 35°41' E 139°56'4 4.2
2015-May-26 05:33N 35°37' E 139°58'1111.0
2015-May-26 04:33N 35°30' E 139°47'2 1.5
2015-May-26 03:30N 35°32' E 139°46'0 0.0
2015-May-26 02:33N 35°32' E 139°46'0 0.0
2015-May-26 01:30N 35°32' E 139°46'0 0.0
2015-May-26 00:27N 35°32' E 139°46'2 2.6
2015-May-25 23:33N 35°30' E 139°48'2 1.5
2015-May-25 22:26N 35°31' E 139°50'0 0.0
2015-May-25 21:32N 35°31' E 139°50'0 0.0
2015-May-25 20:32N 35°31' E 139°50'0 0.0
2015-May-25 19:32N 35°31' E 139°50'0 0.0
2015-May-25 18:32N 35°31' E 139°50'0 0.0
2015-May-25 17:29N 35°31' E 139°50'0 0.0
2015-May-25 16:32N 35°31' E 139°50'0 0.0
2015-May-25 15:32N 35°31' E 139°50'0 0.0
2015-May-25 14:29N 35°31' E 139°50'0 0.0
2015-May-25 13:32N 35°31' E 139°50'0 0.0
2015-May-25 12:29N 35°31' E 139°50'0 0.0
2015-May-25 11:32N 35°31' E 139°50'0 0.0
2015-May-25 10:32N 35°31' E 139°50'0 0.0
2015-May-25 09:29N 35°31' E 139°50'5 5.6
2015-May-25 08:33N 35°27' E 139°45'6 5.5
2015-May-25 07:33N 35°24' E 139°40'0 0.0
2015-May-25 06:33N 35°24' E 139°40'0 0.0
2015-May-25 05:33N 35°24' E 139°40'0 0.0
2015-May-25 04:33N 35°24' E 139°40'1 1.3
2015-May-25 03:33N 35°23' E 139°40'3 3.1
2015-May-25 02:33N 35°22' E 139°44'0 0.0
2015-May-25 01:33N 35°22' E 139°44'0 0.0
2015-May-25 00:30N 35°22' E 139°44'0 0.0
2015-May-24 23:33N 35°22' E 139°44'0 0.0
2015-May-24 22:33N 35°22' E 139°44'0 0.0
2015-May-24 21:33N 35°22' E 139°44'0 0.0
2015-May-24 20:33N 35°22' E 139°44'0 0.0
2015-May-24 19:33N 35°22' E 139°44'0 0.0
2015-May-24 18:33N 35°22' E 139°44'0 0.0
2015-May-24 17:33N 35°22' E 139°44'0 0.0
2015-May-24 16:33N 35°22' E 139°44'0 0.0
2015-May-24 15:33N 35°22' E 139°44'0 0.0
2015-May-24 14:33N 35°22' E 139°44'0 0.0
2015-May-24 13:33N 35°22' E 139°44'0 0.0
2015-May-24 12:33N 35°22' E 139°44'0 0.1
2015-May-24 11:33N 35°22' E 139°44'0 0.0
2015-May-24 10:33N 35°22' E 139°44'8 8.1
2015-May-24 09:33N 35°14' E 139°47'24 9.5
2015-May-24 07:03N 34°52' E 139°57'  
2015-May-20 23:16N 35°55' E 140°41'3 3.2
2015-May-20 22:25N 35°57' E 140°42'0 0.1
2015-May-20 21:33N 35°57' E 140°42'0 0.0
2015-May-20 20:33N 35°57' E 140°42'0 0.0
2015-May-20 19:29N 35°57' E 140°42'0 0.0
2015-May-20 18:33N 35°57' E 140°42'0 0.1
2015-May-20 17:34N 35°57' E 140°42'0 0.1
2015-May-20 16:25N 35°57' E 140°42'0 0.0
2015-May-20 15:23N 35°57' E 140°42'0 0.0
2015-May-20 14:34N 35°57' E 140°42'0 0.0
2015-May-20 13:10N 35°57' E 140°42'5 7.3
2015-May-20 12:31N 36°02' E 140°43'1212.7
2015-May-20 11:34N 36°14' E 140°45'1312.7
2015-May-20 10:34N 36°26' E 140°48'1212.5
2015-May-20 09:33N 36°39' E 140°50'81 1.9
2015-May-18 14:23N 35°18' E 140°37'1213.7
2015-May-18 13:32N 35°09' E 140°28'1413.3
2015-May-18 12:30N 35°01' E 140°14'1212.6
2015-May-18 11:31N 34°55' E 140°02'1311.1
2015-May-18 10:19N 34°54' E 139°45'911.5
2015-May-18 09:32N 35°03' E 139°44'1212.0
2015-May-18 08:33N 35°14' E 139°46'1111.4
2015-May-18 07:33N 35°24' E 139°40'0 0.3
2015-May-18 06:33N 35°24' E 139°40'0 0.0
2015-May-18 05:33N 35°24' E 139°40'0 0.2
2015-May-18 04:33N 35°24' E 139°40'8 8.3
2015-May-18 03:33N 35°31' E 139°46'1 0.8
2015-May-18 02:33N 35°31' E 139°46'0 0.0
2015-May-18 01:33N 35°31' E 139°46'0 0.0
2015-May-18 00:33N 35°31' E 139°46'3 3.2
2015-May-17 23:33N 35°29' E 139°49'0 0.0
2015-May-17 22:33N 35°29' E 139°49'0 0.0
2015-May-17 21:33N 35°29' E 139°49'0 0.0
2015-May-17 20:33N 35°29' E 139°49'0 0.0
2015-May-17 19:34N 35°29' E 139°49'0 0.0
2015-May-17 18:33N 35°29' E 139°49'0 0.1
2015-May-17 17:33N 35°29' E 139°49'0 0.0
2015-May-17 16:33N 35°29' E 139°49'0 0.1
2015-May-17 15:33N 35°29' E 139°49'1111.2
2015-May-17 14:33N 35°18' E 139°44'1411.9
2015-May-17 13:24N 35°05' E 139°45'  
Track history (hours):
 
Tides and Currents Weather Stations Pressure Air Temp Water Temp Dewpoint Dewpoint Depression Visibility Wind Speed Wind Dir Waves Ship Positions

Chie Maru No.10

Last reported at 2015-May-27 09:33 UTC. Time now 2015-May-27 15:51 UTC.
Position N 35°55' E 140°41'.

Length 72 m; draft 3.8 m.

Type: Ship. MMSI: 431000147.

Date/timePositionNaut miles runAvg speedWind from/ knotsBaromVisibWave heightAir tempDewpointWater temp
2015-May-27 09:33N 35°55' E 140°41'0 0.0
2015-May-27 07:09N 35°55' E 140°41'3 0.6
2015-May-27 03:09N 35°57' E 140°42'0 0.0
2015-May-26 23:28N 35°57' E 140°42'8 8.7
2015-May-26 22:30N 35°51' E 140°49'1212.2
2015-May-26 21:33N 35°41' E 140°55'1312.9
2015-May-26 20:33N 35°30' E 140°46'1313.3
2015-May-26 19:33N 35°19' E 140°36'1414.0
2015-May-26 18:32N 35°08' E 140°25'1212.5
2015-May-26 17:33N 35°01' E 140°13'1312.2
2015-May-26 16:28N 34°53' E 140°00'1111.6
2015-May-26 15:33N 34°52' E 139°47'1111.1
2015-May-26 14:32N 35°04' E 139°44'1212.5
2015-May-26 13:33N 35°16' E 139°46'1110.5
2015-May-26 12:33N 35°26' E 139°46'1212.0
2015-May-26 11:33N 35°35' E 139°56'6 5.9
2015-May-26 10:33N 35°41' E 139°56'0 0.0
2015-May-26 09:33N 35°41' E 139°56'0 0.0
2015-May-26 08:33N 35°41' E 139°56'0 0.0
2015-May-26 07:33N 35°41' E 139°56'0 0.0
2015-May-26 06:33N 35°41' E 139°56'4 4.2
2015-May-26 05:33N 35°37' E 139°58'1111.0
2015-May-26 04:33N 35°30' E 139°47'2 1.5
2015-May-26 03:30N 35°32' E 139°46'0 0.0
2015-May-26 02:33N 35°32' E 139°46'0 0.0
2015-May-26 01:30N 35°32' E 139°46'0 0.0
2015-May-26 00:27N 35°32' E 139°46'2 2.6
2015-May-25 23:33N 35°30' E 139°48'2 1.5
2015-May-25 22:26N 35°31' E 139°50'0 0.0
2015-May-25 21:32N 35°31' E 139°50'0 0.0
2015-May-25 20:32N 35°31' E 139°50'0 0.0
2015-May-25 19:32N 35°31' E 139°50'0 0.0
2015-May-25 18:32N 35°31' E 139°50'0 0.0
2015-May-25 17:29N 35°31' E 139°50'0 0.0
2015-May-25 16:32N 35°31' E 139°50'0 0.0
2015-May-25 15:32N 35°31' E 139°50'0 0.0
2015-May-25 14:29N 35°31' E 139°50'0 0.0
2015-May-25 13:32N 35°31' E 139°50'0 0.0
2015-May-25 12:29N 35°31' E 139°50'0 0.0
2015-May-25 11:32N 35°31' E 139°50'0 0.0
2015-May-25 10:32N 35°31' E 139°50'0 0.0
2015-May-25 09:29N 35°31' E 139°50'5 5.6
2015-May-25 08:33N 35°27' E 139°45'6 5.5
2015-May-25 07:33N 35°24' E 139°40'0 0.0
2015-May-25 06:33N 35°24' E 139°40'0 0.0
2015-May-25 05:33N 35°24' E 139°40'0 0.0
2015-May-25 04:33N 35°24' E 139°40'1 1.3
2015-May-25 03:33N 35°23' E 139°40'3 3.1
2015-May-25 02:33N 35°22' E 139°44'0 0.0
2015-May-25 01:33N 35°22' E 139°44'0 0.0
2015-May-25 00:30N 35°22' E 139°44'0 0.0
2015-May-24 23:33N 35°22' E 139°44'0 0.0
2015-May-24 22:33N 35°22' E 139°44'0 0.0
2015-May-24 21:33N 35°22' E 139°44'0 0.0
2015-May-24 20:33N 35°22' E 139°44'0 0.0
2015-May-24 19:33N 35°22' E 139°44'0 0.0
2015-May-24 18:33N 35°22' E 139°44'0 0.0
2015-May-24 17:33N 35°22' E 139°44'0 0.0
2015-May-24 16:33N 35°22' E 139°44'0 0.0
2015-May-24 15:33N 35°22' E 139°44'0 0.0
2015-May-24 14:33N 35°22' E 139°44'0 0.0
2015-May-24 13:33N 35°22' E 139°44'0 0.0
2015-May-24 12:33N 35°22' E 139°44'0 0.1
2015-May-24 11:33N 35°22' E 139°44'0 0.0
2015-May-24 10:33N 35°22' E 139°44'8 8.1
2015-May-24 09:33N 35°14' E 139°47'24 9.5
2015-May-24 07:03N 34°52' E 139°57'  
2015-May-20 23:16N 35°55' E 140°41'3 3.2
2015-May-20 22:25N 35°57' E 140°42'0 0.1
2015-May-20 21:33N 35°57' E 140°42'0 0.0
2015-May-20 20:33N 35°57' E 140°42'0 0.0
2015-May-20 19:29N 35°57' E 140°42'0 0.0
2015-May-20 18:33N 35°57' E 140°42'0 0.1
2015-May-20 17:34N 35°57' E 140°42'0 0.1
2015-May-20 16:25N 35°57' E 140°42'0 0.0
2015-May-20 15:23N 35°57' E 140°42'0 0.0
2015-May-20 14:34N 35°57' E 140°42'0 0.0
2015-May-20 13:10N 35°57' E 140°42'5 7.3
2015-May-20 12:31N 36°02' E 140°43'1212.7
2015-May-20 11:34N 36°14' E 140°45'1312.7
2015-May-20 10:34N 36°26' E 140°48'1212.5
2015-May-20 09:33N 36°39' E 140°50'81 1.9
2015-May-18 14:23N 35°18' E 140°37'1213.7
2015-May-18 13:32N 35°09' E 140°28'1413.3
2015-May-18 12:30N 35°01' E 140°14'1212.6
2015-May-18 11:31N 34°55' E 140°02'1311.1
2015-May-18 10:19N 34°54' E 139°45'911.5
2015-May-18 09:32N 35°03' E 139°44'1212.0
2015-May-18 08:33N 35°14' E 139°46'1111.4
2015-May-18 07:33N 35°24' E 139°40'0 0.3
2015-May-18 06:33N 35°24' E 139°40'0 0.0
2015-May-18 05:33N 35°24' E 139°40'0 0.2
2015-May-18 04:33N 35°24' E 139°40'8 8.3
2015-May-18 03:33N 35°31' E 139°46'1 0.8
2015-May-18 02:33N 35°31' E 139°46'0 0.0
2015-May-18 01:33N 35°31' E 139°46'0 0.0
2015-May-18 00:33N 35°31' E 139°46'3 3.2
2015-May-17 23:33N 35°29' E 139°49'0 0.0
2015-May-17 22:33N 35°29' E 139°49'0 0.0
2015-May-17 21:33N 35°29' E 139°49'0 0.0
2015-May-17 20:33N 35°29' E 139°49'0 0.0
2015-May-17 19:34N 35°29' E 139°49'0 0.0
2015-May-17 18:33N 35°29' E 139°49'0 0.1
2015-May-17 17:33N 35°29' E 139°49'0 0.0
2015-May-17 16:33N 35°29' E 139°49'0 0.1
2015-May-17 15:33N 35°29' E 139°49'1111.2
2015-May-17 14:33N 35°18' E 139°44'1411.9
2015-May-17 13:24N 35°05' E 139°45'  

Dump ship's entire track history